Time;durP1;ratioP1;P1;durP2;ratioP2;P2;SDS_P1;SDS_P2;PMS_P1;PMS_P2;Temp;Humidity;BMP_temperature;BMP_pressure;BME280_temperature;BME280_humidity;BME280_pressure;Samples;Min_cycle;Max_cycle;Signal;HPM_P1;HPM_P2
2023/04/09 00:01:30;;;;;;;80.20;47.03;;;9.00;99.90;;;;;;5073861;28;20052;-59
2023/04/09 00:03:56;;;;;;;86.72;50.45;;;8.90;99.90;;;;;;5072388;28;20033;-59
2023/04/09 00:06:22;;;;;;;80.72;49.17;;;9.00;99.90;;;;;;5073613;28;20098;-59
2023/04/09 00:08:47;;;;;;;85.80;50.33;;;8.80;99.90;;;;;;5073489;28;20128;-58
2023/04/09 00:11:13;;;;;;;84.55;49.63;;;9.00;99.90;;;;;;5073297;28;20055;-60
2023/04/09 00:13:39;;;;;;;86.90;50.90;;;8.80;99.90;;;;;;5073428;28;20040;-59
2023/04/09 00:16:05;;;;;;;87.35;50.60;;;8.80;99.90;;;;;;5072440;28;20032;-60
2023/04/09 00:18:30;;;;;;;90.22;51.78;;;9.00;99.90;;;;;;5073182;28;20425;-60
2023/04/09 00:20:56;;;;;;;93.75;52.67;;;8.90;99.90;;;;;;5073169;28;20028;-59
2023/04/09 00:23:21;;;;;;;94.47;53.30;;;8.90;99.90;;;;;;5073436;28;20040;-60
2023/04/09 00:25:47;;;;;;;94.15;52.67;;;8.70;99.90;;;;;;5073472;28;20055;-59
2023/04/09 00:28:13;;;;;;;92.78;52.33;;;8.70;99.90;;;;;;5073310;28;20435;-59
2023/04/09 00:30:38;;;;;;;101.43;56.00;;;8.90;99.90;;;;;;5073001;28;20047;-59
2023/04/09 00:33:04;;;;;;;94.10;52.22;;;8.70;99.90;;;;;;5073011;28;20087;-59
2023/04/09 00:35:30;;;;;;;97.80;53.47;;;8.60;99.90;;;;;;5072924;28;20055;-60
2023/04/09 00:37:55;;;;;;;94.53;51.90;;;8.70;99.90;;;;;;5072800;28;20041;-59
2023/04/09 00:40:21;;;;;;;90.72;51.47;;;8.70;99.90;;;;;;5073123;28;20036;-59
2023/04/09 00:42:47;;;;;;;92.93;52.20;;;8.60;99.90;;;;;;5073034;28;20036;-59
2023/04/09 00:45:12;;;;;;;83.25;46.63;;;8.70;99.90;;;;;;5071678;28;20072;-59
2023/04/09 00:47:38;;;;;;;84.07;46.92;;;8.90;99.90;;;;;;5072748;28;20063;-59
2023/04/09 00:50:04;;;;;;;81.05;46.30;;;8.60;99.90;;;;;;5071565;28;20047;-59
2023/04/09 00:52:31;;;;;;;81.75;44.50;;;8.70;99.90;;;;;;5072709;28;20040;-44
2023/04/09 00:54:59;;;;;;;75.93;42.20;;;8.60;99.90;;;;;;5072353;28;20036;-44
2023/04/09 00:57:25;;;;;;;77.53;43.92;;;8.50;99.90;;;;;;5072627;28;20044;-45
2023/04/09 00:59:50;;;;;;;82.80;43.42;;;8.40;99.90;;;;;;5072274;28;20049;-44
2023/04/09 01:02:16;;;;;;;77.60;43.97;;;8.60;99.90;;;;;;5072746;28;20044;-45
2023/04/09 01:04:42;;;;;;;78.07;42.40;;;8.50;99.90;;;;;;5072292;28;20045;-45
2023/04/09 01:07:19;;;;;;;80.85;42.65;;;8.50;99.90;;;;;;5072445;28;20052;-44
2023/04/09 01:09:56;;;;;;;73.95;43.03;;;8.50;99.90;;;;;;5072345;28;20043;-45
2023/04/09 01:12:22;;;;;;;78.93;42.22;;;8.50;99.90;;;;;;5072657;28;20328;-44
2023/04/09 01:14:50;;;;;;;72.70;40.03;;;8.60;99.90;;;;;;5072278;28;20097;-44
2023/04/09 01:17:22;;;;;;;78.63;40.88;;;8.40;99.90;;;;;;5072293;28;20511;-46
2023/04/09 01:20:05;;;;;;;72.82;38.63;;;8.30;99.90;;;;;;5071987;28;20508;-45
2023/04/09 01:22:30;;;;;;;69.63;38.80;;;8.50;99.90;;;;;;5072359;28;20107;-44
2023/04/09 01:25:29;;;;;;;70.55;38.20;;;8.30;99.90;;;;;;5054108;28;20497;-45
2023/04/09 01:28:15;;;;;;;67.93;36.83;;;8.40;99.90;;;;;;5072108;28;20041;-45
2023/04/09 01:30:46;;;;;;;61.58;34.28;;;8.20;99.90;;;;;;5072106;28;20040;-48
2023/04/09 01:33:13;;;;;;;64.82;35.22;;;8.20;99.90;;;;;;5072182;28;20040;-44
2023/04/09 01:35:45;;;;;;;60.17;33.78;;;8.20;99.90;;;;;;5072148;28;20041;-45
2023/04/09 01:38:12;;;;;;;61.53;33.47;;;8.20;99.90;;;;;;5071949;28;20088;-46
2023/04/09 01:40:38;;;;;;;59.90;33.10;;;8.40;99.90;;;;;;5071671;28;20041;-45
2023/04/09 01:43:06;;;;;;;61.38;33.97;;;8.30;99.90;;;;;;5070720;28;20500;-44
2023/04/09 01:45:33;;;;;;;64.57;35.58;;;8.50;99.90;;;;;;5071762;28;20076;-45
2023/04/09 01:47:59;;;;;;;62.65;34.20;;;8.50;99.90;;;;;;5071922;28;20067;-45
2023/04/09 01:50:25;;;;;;;61.70;32.33;;;8.50;99.90;;;;;;5071706;28;20041;-45
2023/04/09 01:52:52;;;;;;;55.95;31.58;;;8.40;99.90;;;;;;5071716;28;20043;-45
2023/04/09 01:55:17;;;;;;;58.20;33.00;;;8.20;99.90;;;;;;5071450;28;20079;-44
2023/04/09 01:57:43;;;;;;;57.95;30.55;;;8.50;99.90;;;;;;5071775;28;20044;-46
2023/04/09 02:00:09;;;;;;;54.63;32.03;;;8.30;99.90;;;;;;5071789;28;20137;-46
2023/04/09 02:03:27;;;;;;;59.05;31.63;;;8.30;99.90;;;;;;5071848;28;20404;-47
2023/04/09 02:06:19;;;;;;;61.25;33.00;;;8.50;99.90;;;;;;5069431;28;20084;-46
2023/04/09 02:08:46;;;;;;;56.95;29.88;;;8.20;99.90;;;;;;5071960;28;20045;-45
2023/04/09 02:11:13;;;;;;;50.70;28.88;;;8.20;99.90;;;;;;5071433;28;20037;-45
2023/04/09 02:13:40;;;;;;;52.03;29.67;;;8.20;99.90;;;;;;5071629;28;20039;-44
2023/04/09 02:16:08;;;;;;;53.42;29.42;;;8.40;99.90;;;;;;5071522;28;20041;-44
2023/04/09 02:18:33;;;;;;;53.15;28.33;;;8.50;99.90;;;;;;5070511;28;20048;-45
2023/04/09 02:20:59;;;;;;;54.70;29.13;;;8.50;99.90;;;;;;5071584;28;20396;-44
2023/04/09 02:23:31;;;;;;;47.40;27.92;;;8.20;99.90;;;;;;5071560;28;20508;-44
2023/04/09 02:25:56;;;;;;;51.17;26.63;;;8.30;99.90;;;;;;5071474;28;20082;-44
2023/04/09 02:28:22;;;;;;;45.42;26.27;;;8.50;99.90;;;;;;5071371;28;20378;-45
2023/04/09 02:30:48;;;;;;;46.10;25.80;;;8.20;99.90;;;;;;5070214;28;20052;-47
2023/04/09 02:33:13;;;;;;;47.72;27.33;;;8.20;99.90;;;;;;5071647;28;20296;-46
2023/04/09 02:35:39;;;;;;;44.78;27.05;;;8.30;99.90;;;;;;5071510;28;20028;-45
2023/04/09 02:38:06;;;;;;;49.25;27.58;;;8.30;99.90;;;;;;5070280;28;20545;-49
2023/04/09 02:40:32;;;;;;;47.05;27.48;;;8.40;99.90;;;;;;5071180;28;20056;-47
2023/04/09 02:42:58;;;;;;;46.40;26.75;;;8.30;99.90;;;;;;5071241;28;20033;-45
2023/04/09 02:45:24;;;;;;;48.67;27.67;;;8.20;99.90;;;;;;5071494;28;20033;-44
2023/04/09 02:47:49;;;;;;;51.25;26.08;;;8.30;99.90;;;;;;5071260;28;20418;-45
2023/04/09 02:50:16;;;;;;;47.15;26.38;;;8.50;99.90;;;;;;5071506;28;20551;-47
2023/04/09 02:52:45;;;;;;;48.63;26.60;;;8.50;99.90;;;;;;5071318;28;20044;-45
2023/04/09 02:55:11;;;;;;;48.05;26.35;;;8.40;99.90;;;;;;5070951;28;20404;-45
2023/04/09 02:57:36;;;;;;;46.25;27.13;;;8.20;99.90;;;;;;5071056;28;20052;-46
2023/04/09 03:00:02;;;;;;;45.85;27.25;;;8.10;99.90;;;;;;5071123;28;20044;-47
2023/04/09 03:02:28;;;;;;;49.00;27.45;;;8.30;99.90;;;;;;5069984;28;20382;-49
2023/04/09 03:04:54;;;;;;;45.10;25.92;;;8.30;99.90;;;;;;5071008;28;20080;-46
2023/04/09 03:07:19;;;;;;;45.10;26.88;;;8.10;99.90;;;;;;5071061;28;20036;-46
2023/04/09 03:09:45;;;;;;;45.08;26.40;;;8.10;99.90;;;;;;5074670;28;20044;-44
2023/04/09 03:12:11;;;;;;;43.97;25.15;;;8.10;99.90;;;;;;5074498;28;20040;-44
2023/04/09 03:14:36;;;;;;;43.72;25.30;;;8.20;99.90;;;;;;5074547;28;20046;-45
2023/04/09 03:17:02;;;;;;;48.28;25.52;;;8.00;99.90;;;;;;5074579;28;20094;-44
2023/04/09 03:19:29;;;;;;;43.85;24.45;;;8.00;99.90;;;;;;5074690;28;20052;-47
2023/04/09 03:21:55;;;;;;;45.25;25.83;;;8.20;99.90;;;;;;5074688;28;20127;-45
2023/04/09 03:24:20;;;;;;;44.80;25.13;;;8.00;99.90;;;;;;5074346;28;20074;-46
2023/04/09 03:26:46;;;;;;;42.70;25.60;;;8.20;99.90;;;;;;5074371;28;20032;-44
2023/04/09 03:29:12;;;;;;;43.88;25.98;;;8.10;99.90;;;;;;5074373;28;20036;-44
2023/04/09 03:31:37;;;;;;;40.53;22.73;;;8.00;99.90;;;;;;5074128;28;20036;-45
2023/04/09 03:34:03;;;;;;;43.42;24.83;;;8.10;99.90;;;;;;5073203;28;20119;-46
2023/04/09 03:36:29;;;;;;;48.25;25.90;;;8.20;99.90;;;;;;5074342;28;20048;-46
2023/04/09 03:38:54;;;;;;;42.28;25.45;;;8.10;99.90;;;;;;5074109;28;20128;-46
2023/04/09 03:41:20;;;;;;;45.63;24.98;;;8.20;99.90;;;;;;5074125;28;20538;-44
2023/04/09 03:43:46;;;;;;;42.80;23.98;;;8.00;99.90;;;;;;5074127;28;20044;-45
2023/04/09 03:46:15;;;;;;;46.88;26.02;;;7.90;99.90;;;;;;5074120;28;20094;-45
2023/04/09 03:48:42;;;;;;;43.45;24.15;;;8.00;99.90;;;;;;5074017;28;20420;-45
2023/04/09 03:51:12;;;;;;;42.72;24.95;;;8.20;99.90;;;;;;5072738;28;20123;-46
2023/04/09 03:53:38;;;;;;;44.38;24.63;;;8.10;99.90;;;;;;5074029;28;20470;-45
2023/04/09 03:56:04;;;;;;;42.72;23.95;;;7.90;99.90;;;;;;5073469;28;20076;-46
2023/04/09 03:58:30;;;;;;;43.70;24.33;;;7.90;99.90;;;;;;5072437;28;20059;-45
2023/04/09 04:00:55;;;;;;;42.58;23.83;;;7.90;99.90;;;;;;5072474;28;20430;-45
2023/04/09 04:03:21;;;;;;;45.10;23.73;;;7.80;99.90;;;;;;5073981;28;20090;-46
2023/04/09 04:05:47;;;;;;;39.10;23.90;;;7.90;99.90;;;;;;5073715;28;20044;-47
2023/04/09 04:08:13;;;;;;;46.25;25.30;;;8.10;99.90;;;;;;5073648;28;20056;-46
2023/04/09 04:10:38;;;;;;;39.03;22.95;;;8.10;99.90;;;;;;5073658;28;20111;-45
2023/04/09 04:13:07;;;;;;;40.03;23.95;;;7.90;99.90;;;;;;5073536;28;20040;-48
2023/04/09 04:15:33;;;;;;;42.78;24.65;;;8.10;99.90;;;;;;5073516;28;20048;-45
2023/04/09 04:17:59;;;;;;;42.42;23.75;;;7.80;99.90;;;;;;5073192;28;20040;-45
2023/04/09 04:20:25;;;;;;;39.58;24.25;;;7.80;99.90;;;;;;5073115;28;20123;-45
2023/04/09 04:22:51;;;;;;;38.75;22.40;;;8.10;99.90;;;;;;5073154;28;20041;-46
2023/04/09 04:25:16;;;;;;;40.25;23.52;;;8.00;99.90;;;;;;5073144;28;20043;-45
2023/04/09 04:27:42;;;;;;;42.65;23.33;;;8.00;99.90;;;;;;5073345;28;20147;-46
2023/04/09 04:30:08;;;;;;;41.30;23.92;;;8.00;99.90;;;;;;5073376;28;20041;-45
2023/04/09 04:32:34;;;;;;;40.50;24.27;;;8.00;99.90;;;;;;5071867;28;20075;-46
2023/04/09 04:35:00;;;;;;;39.70;23.67;;;7.80;99.90;;;;;;5073130;28;20040;-44
2023/04/09 04:37:25;;;;;;;41.83;22.73;;;7.90;99.90;;;;;;5073093;28;20033;-46
2023/04/09 04:39:51;;;;;;;41.92;23.55;;;7.90;99.90;;;;;;5073004;28;20052;-45
2023/04/09 04:42:17;;;;;;;44.30;24.88;;;8.10;99.90;;;;;;5072819;28;20036;-45
2023/04/09 04:44:43;;;;;;;43.60;24.67;;;7.80;99.90;;;;;;5072863;28;20086;-45
2023/04/09 04:47:09;;;;;;;41.03;24.92;;;7.90;99.90;;;;;;5071795;28;20111;-45
2023/04/09 04:49:34;;;;;;;42.50;24.65;;;8.10;99.90;;;;;;5072760;28;20127;-46
2023/04/09 04:52:00;;;;;;;42.92;24.50;;;7.80;99.90;;;;;;5072118;28;20474;-48
2023/04/09 04:54:26;;;;;;;43.80;25.67;;;8.10;99.90;;;;;;5071692;28;20098;-45
2023/04/09 04:56:52;;;;;;;42.13;24.65;;;8.00;99.90;;;;;;5072527;28;20090;-45
2023/04/09 04:59:17;;;;;;;42.47;24.70;;;8.10;99.90;;;;;;5072354;28;20056;-46
2023/04/09 05:01:43;;;;;;;43.80;26.15;;;7.90;99.90;;;;;;5072770;28;20036;-45
2023/04/09 05:04:09;;;;;;;45.97;25.08;;;8.10;99.90;;;;;;5072637;28;20033;-48
2023/04/09 05:06:35;;;;;;;43.63;25.25;;;8.10;99.90;;;;;;5072653;28;20036;-47
2023/04/09 05:09:00;;;;;;;47.20;26.63;;;7.80;99.90;;;;;;5072437;28;20497;-46
2023/04/09 05:11:26;;;;;;;46.42;26.70;;;7.90;99.90;;;;;;5072535;28;20535;-45
2023/04/09 05:13:52;;;;;;;45.67;25.88;;;7.90;99.90;;;;;;5072294;28;20041;-45
2023/04/09 05:16:19;;;;;;;44.50;25.65;;;8.10;99.90;;;;;;5072529;28;20047;-46
2023/04/09 05:18:46;;;;;;;42.15;25.05;;;7.90;99.90;;;;;;5072343;28;20148;-46
2023/04/09 05:21:11;;;;;;;40.70;22.83;;;7.90;99.90;;;;;;5071980;28;20040;-45
2023/04/09 05:23:37;;;;;;;40.00;23.30;;;8.10;99.90;;;;;;5072598;28;20051;-45
2023/04/09 05:26:03;;;;;;;42.05;23.35;;;7.90;99.90;;;;;;5070853;28;20127;-45
2023/04/09 05:28:29;;;;;;;42.30;23.27;;;8.00;99.90;;;;;;5072125;28;20040;-45
2023/04/09 05:30:54;;;;;;;39.30;23.05;;;8.20;99.90;;;;;;5071772;28;20052;-46
2023/04/09 05:33:20;;;;;;;39.70;21.92;;;8.00;99.90;;;;;;5072055;28;20439;-46
2023/04/09 05:35:46;;;;;;;38.97;22.38;;;8.20;99.90;;;;;;5070917;28;20498;-45
2023/04/09 05:38:12;;;;;;;40.30;22.45;;;8.00;99.90;;;;;;5071943;28;20106;-46
2023/04/09 05:40:38;;;;;;;38.30;23.55;;;8.20;99.90;;;;;;5072059;28;20048;-47
2023/04/09 05:43:04;;;;;;;42.58;22.63;;;7.90;99.90;;;;;;5072061;28;20115;-44
2023/04/09 05:45:30;;;;;;;43.22;23.60;;;8.10;99.90;;;;;;5072028;28;20538;-44
2023/04/09 05:47:56;;;;;;;37.90;23.67;;;8.20;99.90;;;;;;5071635;28;20040;-46
2023/04/09 05:50:22;;;;;;;38.60;23.67;;;8.20;99.90;;;;;;5070798;28;20488;-46
2023/04/09 05:52:48;;;;;;;41.63;23.48;;;8.20;99.90;;;;;;5070718;28;20504;-47
2023/04/09 05:55:13;;;;;;;44.17;24.13;;;8.00;99.90;;;;;;5070917;28;20427;-45
2023/04/09 05:57:40;;;;;;;40.80;23.45;;;8.20;99.90;;;;;;5071621;28;20052;-48
2023/04/09 06:00:07;;;;;;;42.80;24.00;;;8.30;99.90;;;;;;5071932;28;20053;-45
2023/04/09 06:02:32;;;;;;;43.30;24.05;;;8.20;99.90;;;;;;5070957;28;20366;-44
2023/04/09 06:04:58;;;;;;;43.35;24.65;;;8.00;99.90;;;;;;5071694;28;20070;-44
2023/04/09 06:07:24;;;;;;;44.38;23.75;;;8.00;99.90;;;;;;5071695;28;20040;-45
2023/04/09 06:09:49;;;;;;;43.03;24.23;;;8.20;99.90;;;;;;5071917;28;20119;-45
2023/04/09 06:12:16;;;;;;;45.67;25.02;;;8.10;99.90;;;;;;5071864;28;20044;-44
2023/04/09 06:14:42;;;;;;;47.20;25.38;;;8.10;99.90;;;;;;5071781;28;20045;-45
2023/04/09 06:17:07;;;;;;;44.50;25.08;;;8.40;99.90;;;;;;5071754;28;20042;-46
2023/04/09 06:19:33;;;;;;;39.17;23.20;;;8.40;99.90;;;;;;5070319;28;20045;-49
2023/04/09 06:21:59;;;;;;;43.45;24.65;;;8.10;99.90;;;;;;5068776;28;20056;-44
2023/04/09 06:24:24;;;;;;;42.80;23.98;;;8.30;99.90;;;;;;5070012;28;20579;-48
2023/04/09 06:26:50;;;;;;;40.08;23.92;;;8.20;99.90;;;;;;5070112;28;20052;-46
2023/04/09 06:29:16;;;;;;;40.70;23.35;;;8.10;99.90;;;;;;5068936;28;20118;-46
2023/04/09 06:31:42;;;;;;;38.30;22.45;;;8.20;99.90;;;;;;5070186;28;20044;-45
2023/04/09 06:34:08;;;;;;;40.30;22.10;;;8.30;99.90;;;;;;5068548;28;20044;-46
2023/04/09 06:36:36;;;;;;;37.65;22.10;;;8.40;99.90;;;;;;5070208;28;20036;-46
2023/04/09 06:39:02;;;;;;;37.20;20.80;;;8.10;99.90;;;;;;5069931;28;20040;-45
2023/04/09 06:41:27;;;;;;;35.15;21.10;;;8.30;99.90;;;;;;5069984;28;20047;-44
2023/04/09 06:43:53;;;;;;;30.60;18.83;;;8.20;99.90;;;;;;5072647;28;20039;-46
2023/04/09 06:46:20;;;;;;;30.20;18.40;;;8.30;99.90;;;;;;5072512;28;20032;-44
2023/04/09 06:48:46;;;;;;;30.63;18.48;;;8.30;99.90;;;;;;5073434;28;20563;-45
2023/04/09 06:51:13;;;;;;;32.33;19.50;;;8.30;99.90;;;;;;5072249;28;20045;-44
2023/04/09 06:53:39;;;;;;;32.63;19.67;;;8.20;99.90;;;;;;5073649;28;20052;-48
2023/04/09 06:56:05;;;;;;;30.83;18.73;;;8.20;99.90;;;;;;5060371;28;20075;-47
2023/04/09 06:58:31;;;;;;;34.03;20.17;;;8.30;99.90;;;;;;5061882;28;20049;-45
2023/04/09 07:00:58;;;;;;;36.17;19.60;;;8.40;99.90;;;;;;5060306;28;20551;-47
2023/04/09 07:03:23;;;;;;;31.23;19.08;;;8.20;99.90;;;;;;5053370;28;20040;-49
2023/04/09 07:05:49;;;;;;;33.83;19.33;;;8.30;99.90;;;;;;5053456;28;20413;-46
2023/04/09 07:08:15;;;;;;;33.15;20.85;;;8.20;99.90;;;;;;5053310;28;20163;-45
2023/04/09 07:10:40;;;;;;;40.17;20.77;;;8.30;99.90;;;;;;5057263;28;20041;-46
2023/04/09 07:13:06;;;;;;;34.58;20.80;;;8.30;99.90;;;;;;5062619;28;20036;-47
2023/04/09 07:15:32;;;;;;;35.90;21.67;;;8.30;99.90;;;;;;5061445;28;20036;-48
2023/04/09 07:17:59;;;;;;;33.40;18.92;;;8.40;99.90;;;;;;5066057;28;20047;-47
2023/04/09 07:20:25;;;;;;;34.38;21.23;;;8.40;99.90;;;;;;5072744;28;20386;-45
2023/04/09 07:22:50;;;;;;;39.47;22.15;;;8.40;99.90;;;;;;5073281;28;20123;-45
2023/04/09 07:25:16;;;;;;;37.35;21.10;;;8.50;99.90;;;;;;5072842;28;20068;-45
2023/04/09 07:27:42;;;;;;;35.00;21.42;;;8.50;99.90;;;;;;5073373;28;20036;-45
2023/04/09 07:30:09;;;;;;;35.33;21.88;;;8.50;99.90;;;;;;5072963;28;20437;-45
2023/04/09 07:32:36;;;;;;;35.63;21.60;;;8.60;99.90;;;;;;5072857;28;20044;-45
2023/04/09 07:35:06;;;;;;;34.63;21.98;;;8.50;99.90;;;;;;5073019;28;20425;-46
2023/04/09 07:37:32;;;;;;;37.42;21.92;;;8.60;99.90;;;;;;5072735;28;20044;-45
2023/04/09 07:39:58;;;;;;;35.25;21.23;;;8.60;99.90;;;;;;5072782;28;20097;-46
2023/04/09 07:42:24;;;;;;;37.95;22.13;;;8.60;99.90;;;;;;5072678;28;20032;-46
2023/04/09 07:44:50;;;;;;;37.55;23.35;;;8.70;99.90;;;;;;5072618;28;20182;-45
2023/04/09 07:47:16;;;;;;;39.40;22.67;;;8.60;99.90;;;;;;5046664;28;20521;-46
2023/04/09 07:49:41;;;;;;;33.47;21.33;;;8.60;99.90;;;;;;5066254;28;20044;-45
2023/04/09 07:52:07;;;;;;;35.65;23.58;;;8.60;99.90;;;;;;5061327;28;20072;-45
2023/04/09 07:54:34;;;;;;;37.45;23.30;;;8.60;99.90;;;;;;5061959;28;20037;-44
2023/04/09 07:57:03;;;;;;;37.00;22.73;;;8.70;99.90;;;;;;5058632;28;20416;-46
2023/04/09 07:59:30;;;;;;;40.75;23.00;;;8.60;99.90;;;;;;5061839;28;20041;-45
2023/04/09 08:01:56;;;;;;;35.83;23.00;;;8.80;99.90;;;;;;5072351;28;20048;-44
2023/04/09 08:04:21;;;;;;;40.13;23.42;;;8.80;99.90;;;;;;5072149;28;20040;-44
2023/04/09 08:06:49;;;;;;;36.00;22.73;;;8.80;99.90;;;;;;5072123;28;20439;-46
2023/04/09 08:09:17;;;;;;;38.25;22.95;;;8.80;99.90;;;;;;5072304;28;20048;-46
2023/04/09 08:11:44;;;;;;;37.63;22.45;;;8.90;99.90;;;;;;5072161;28;20149;-47
2023/04/09 08:14:11;;;;;;;38.10;22.58;;;8.90;99.90;;;;;;5070945;28;20037;-45
2023/04/09 08:16:42;;;;;;;39.35;23.15;;;9.10;99.90;;;;;;5072226;28;20032;-45
2023/04/09 08:19:08;;;;;;;38.67;23.95;;;9.10;99.90;;;;;;5072314;28;20086;-47
2023/04/09 08:21:41;;;;;;;38.10;24.30;;;9.00;99.90;;;;;;5071741;28;20500;-47
2023/04/09 08:24:10;;;;;;;41.03;23.58;;;9.10;99.90;;;;;;5072032;28;20115;-46
2023/04/09 08:26:36;;;;;;;41.75;22.92;;;9.10;99.90;;;;;;5071651;28;20041;-46
2023/04/09 08:29:02;;;;;;;41.83;23.65;;;9.00;99.90;;;;;;5071318;28;20044;-46
2023/04/09 08:31:28;;;;;;;39.70;23.70;;;9.10;99.90;;;;;;5070449;28;20059;-46
2023/04/09 08:33:53;;;;;;;39.63;23.17;;;9.20;99.90;;;;;;5071754;28;20040;-46
2023/04/09 08:36:20;;;;;;;44.25;23.90;;;9.20;99.90;;;;;;5071572;28;20128;-46
2023/04/09 08:38:46;;;;;;;41.58;23.20;;;9.30;99.90;;;;;;5070196;28;20040;-48
2023/04/09 08:41:28;;;;;;;38.35;22.20;;;9.40;99.90;;;;;;5071296;28;20067;-46
2023/04/09 08:43:54;;;;;;;41.20;22.40;;;9.50;99.90;;;;;;5071161;28;20476;-46
2023/04/09 08:46:20;;;;;;;43.88;23.70;;;9.50;99.90;;;;;;5069714;28;20048;-46
2023/04/09 08:48:48;;;;;;;38.72;22.70;;;9.60;99.90;;;;;;5070522;28;20083;-45
2023/04/09 08:51:15;;;;;;;39.92;23.40;;;9.60;99.90;;;;;;5070993;28;20511;-47
2023/04/09 08:53:46;;;;;;;40.22;22.55;;;9.50;99.90;;;;;;5071127;28;20051;-45
2023/04/09 08:56:15;;;;;;;42.47;23.45;;;9.60;99.90;;;;;;5070398;28;20174;-47
2023/04/09 08:58:45;;;;;;;37.60;21.98;;;9.50;99.90;;;;;;5071114;28;20057;-46
2023/04/09 09:01:25;;;;;;;39.88;23.30;;;9.50;99.90;;;;;;5070324;28;20047;-47
2023/04/09 09:03:59;;;;;;;38.20;22.67;;;9.50;99.90;;;;;;5071035;28;20048;-46
2023/04/09 09:06:37;;;;;;;41.70;22.67;;;9.60;99.90;;;;;;5069659;28;20074;-46
2023/04/09 09:09:14;;;;;;;38.10;22.45;;;9.60;99.90;;;;;;5070900;28;20408;-46
2023/04/09 09:11:45;;;;;;;43.28;23.75;;;9.70;99.90;;;;;;5070967;28;20440;-45
2023/04/09 09:14:16;;;;;;;39.63;23.52;;;9.80;99.90;;;;;;5071126;28;20076;-47
2023/04/09 09:17:02;;;;;;;39.00;23.55;;;9.80;99.90;;;;;;5069110;28;20090;-45
2023/04/09 09:19:30;;;;;;;40.80;22.92;;;9.90;99.90;;;;;;5070870;28;20044;-46
2023/04/09 09:21:56;;;;;;;39.03;23.50;;;10.00;99.90;;;;;;5070912;28;20102;-49
2023/04/09 09:24:22;;;;;;;40.85;24.00;;;10.00;99.90;;;;;;5070769;28;20051;-45
2023/04/09 09:26:48;;;;;;;36.00;22.88;;;10.00;99.90;;;;;;5070742;28;20040;-46
2023/04/09 09:29:14;;;;;;;40.95;23.67;;;10.00;99.90;;;;;;5070681;28;20122;-44
2023/04/09 09:31:48;;;;;;;37.30;22.58;;;10.20;99.90;;;;;;5070732;28;20097;-45
2023/04/09 09:34:17;;;;;;;37.08;23.02;;;10.10;99.90;;;;;;5070607;28;20405;-47
2023/04/09 09:36:44;;;;;;;37.50;22.60;;;10.10;99.90;;;;;;5070209;28;20117;-45
2023/04/09 09:39:12;;;;;;;37.33;23.15;;;10.10;99.90;;;;;;5070315;28;20530;-45
2023/04/09 09:41:41;;;;;;;36.60;22.27;;;10.20;99.90;;;;;;5069592;28;20028;-45
2023/04/09 09:44:08;;;;;;;37.75;22.67;;;10.40;99.90;;;;;;5070033;28;20374;-46
2023/04/09 09:46:37;;;;;;;36.35;22.48;;;10.40;99.90;;;;;;5070681;28;20032;-48
2023/04/09 09:49:03;;;;;;;39.75;24.33;;;10.50;99.90;;;;;;5067452;28;20051;-48
2023/04/09 09:51:31;;;;;;;36.20;22.10;;;10.40;99.90;;;;;;5068492;28;20516;-46
2023/04/09 09:53:58;;;;;;;36.22;22.17;;;10.50;99.90;;;;;;5069111;28;20446;-46
2023/04/09 09:56:31;;;;;;;38.53;21.95;;;10.60;99.90;;;;;;5070217;28;20086;-46
2023/04/09 09:59:03;;;;;;;37.58;22.60;;;10.60;99.90;;;;;;5068794;28;20508;-46
2023/04/09 10:01:29;;;;;;;38.30;22.20;;;10.70;99.90;;;;;;5070290;28;20453;-46
2023/04/09 10:04:00;;;;;;;37.85;22.80;;;10.70;99.90;;;;;;5071082;28;20033;-47
2023/04/09 10:06:27;;;;;;;38.33;22.60;;;10.70;99.90;;;;;;5072234;28;20041;-46
2023/04/09 10:08:56;;;;;;;36.40;22.98;;;10.80;99.90;;;;;;5071150;28;20499;-45
2023/04/09 10:11:23;;;;;;;34.10;20.92;;;10.90;99.90;;;;;;5071485;28;20093;-46
2023/04/09 10:13:57;;;;;;;37.47;22.38;;;11.00;99.90;;;;;;5071143;28;20388;-46
2023/04/09 10:16:24;;;;;;;34.30;21.55;;;11.10;99.90;;;;;;5071616;28;20110;-45
2023/04/09 10:18:51;;;;;;;40.55;24.20;;;11.10;99.90;;;;;;5075274;28;20115;-46
2023/04/09 10:21:35;;;;;;;40.83;23.70;;;11.10;99.90;;;;;;5074379;28;20470;-46
2023/04/09 10:24:04;;;;;;;38.13;23.52;;;11.20;99.90;;;;;;5075584;28;20097;-45
2023/04/09 10:26:39;;;;;;;36.63;23.13;;;11.30;99.90;;;;;;5075019;28;20044;-48
2023/04/09 10:29:13;;;;;;;36.15;22.83;;;11.40;99.90;;;;;;5057021;28;20048;-45
2023/04/09 10:32:25;;;;;;;37.78;23.88;;;11.40;99.90;;;;;;5074147;28;20374;-46
2023/04/09 10:34:51;;;;;;;36.28;22.27;;;11.50;99.90;;;;;;5015976;28;20056;-45
2023/04/09 10:37:22;;;;;;;35.55;22.60;;;11.60;99.90;;;;;;5069310;28;20500;-46
2023/04/09 10:39:52;;;;;;;36.05;22.27;;;11.80;99.90;;;;;;5075251;28;20135;-49
2023/04/09 10:42:38;;;;;;;36.17;22.52;;;12.00;99.90;;;;;;5075009;28;20036;-46
2023/04/09 10:45:11;;;;;;;34.83;22.10;;;11.90;99.90;;;;;;5075448;28;20503;-46
2023/04/09 10:47:38;;;;;;;33.65;21.85;;;12.00;99.90;;;;;;5075189;28;20150;-49
2023/04/09 10:50:20;;;;;;;34.42;21.88;;;12.10;99.90;;;;;;5075148;28;20362;-50
2023/04/09 10:52:46;;;;;;;36.85;21.63;;;12.10;99.90;;;;;;5073785;28;20546;-45
2023/04/09 10:55:33;;;;;;;36.15;23.02;;;12.00;99.90;;;;;;5074939;28;20039;-45
2023/04/09 10:57:58;;;;;;;35.60;22.48;;;12.00;99.90;;;;;;5074834;28;20056;-46
2023/04/09 11:00:24;;;;;;;33.50;21.23;;;12.20;99.90;;;;;;5074851;28;20126;-45
2023/04/09 11:03:03;;;;;;;33.22;21.63;;;12.30;99.90;;;;;;5074499;28;20036;-46
2023/04/09 11:05:29;;;;;;;33.50;22.33;;;12.30;99.90;;;;;;5074456;28;20091;-47
2023/04/09 11:08:09;;;;;;;35.15;21.55;;;12.40;99.90;;;;;;5074594;28;20052;-47
2023/04/09 11:10:40;;;;;;;31.13;20.67;;;12.60;99.90;;;;;;5074619;28;20109;-46
2023/04/09 11:13:07;;;;;;;34.60;22.55;;;12.60;99.90;;;;;;5074416;28;20032;-47
2023/04/09 11:15:35;;;;;;;36.85;22.45;;;12.50;99.90;;;;;;5074410;28;20036;-47
2023/04/09 11:18:02;;;;;;;35.10;22.10;;;12.40;99.90;;;;;;5073116;28;20099;-49
2023/04/09 11:20:29;;;;;;;32.38;21.25;;;12.50;99.90;;;;;;5073834;28;20079;-46
2023/04/09 11:22:55;;;;;;;35.08;22.63;;;12.50;99.90;;;;;;5070504;28;20037;-46
2023/04/09 11:25:26;;;;;;;33.22;22.13;;;12.50;99.90;;;;;;5072999;28;20110;-48
2023/04/09 11:27:52;;;;;;;32.42;21.70;;;12.80;99.90;;;;;;5072408;28;20115;-46
2023/04/09 11:30:19;;;;;;;29.77;19.95;;;12.90;99.90;;;;;;5073712;28;20041;-46
2023/04/09 11:32:45;;;;;;;31.63;20.75;;;13.10;99.90;;;;;;5074391;28;20051;-46
2023/04/09 11:35:18;;;;;;;33.80;21.27;;;13.20;99.90;;;;;;5074512;28;20044;-45
2023/04/09 11:37:45;;;;;;;32.38;20.40;;;13.40;99.90;;;;;;5074536;28;20029;-47
2023/04/09 11:40:23;;;;;;;35.63;21.80;;;13.50;99.90;;;;;;5074198;28;20052;-46
2023/04/09 11:42:51;;;;;;;31.30;21.25;;;13.70;99.90;;;;;;5074146;28;20036;-46
2023/04/09 11:45:18;;;;;;;31.38;20.75;;;13.80;99.90;;;;;;5074073;28;20029;-45
2023/04/09 11:47:45;;;;;;;29.38;19.98;;;13.80;99.90;;;;;;5068606;28;20047;-46
2023/04/09 11:50:12;;;;;;;34.70;22.55;;;14.00;99.90;;;;;;5065549;28;20040;-46
2023/04/09 11:52:40;;;;;;;33.88;21.67;;;13.50;99.90;;;;;;5062635;28;20060;-50
2023/04/09 11:55:07;;;;;;;32.13;21.73;;;13.40;99.90;;;;;;5063355;28;20471;-45
2023/04/09 11:57:41;;;;;;;31.95;20.98;;;13.40;99.90;;;;;;5064749;28;20059;-46
2023/04/09 12:00:15;;;;;;;30.60;21.00;;;13.40;99.90;;;;;;5063925;28;20045;-46
2023/04/09 12:02:46;;;;;;;32.88;21.27;;;13.50;99.90;;;;;;5063277;28;20033;-45
2023/04/09 12:05:21;;;;;;;34.60;21.50;;;13.60;99.90;;;;;;5062322;28;20053;-46
2023/04/09 12:07:47;;;;;;;32.60;20.63;;;13.80;99.90;;;;;;5063968;28;20039;-45
2023/04/09 12:10:13;;;;;;;30.08;19.63;;;13.90;99.90;;;;;;5062398;28;20055;-46
2023/04/09 12:12:41;;;;;;;32.05;20.00;;;13.80;99.90;;;;;;5064010;28;20036;-46
2023/04/09 12:15:20;;;;;;;31.00;19.75;;;14.10;99.90;;;;;;5063503;28;20041;-46
2023/04/09 12:17:56;;;;;;;29.75;19.95;;;14.00;99.90;;;;;;5063291;28;20033;-45
2023/04/09 12:20:51;;;;;;;30.90;20.55;;;13.80;99.90;;;;;;5063021;28;20076;-46
2023/04/09 12:23:17;;;;;;;31.17;20.88;;;13.70;99.90;;;;;;5056383;28;20588;-48
2023/04/09 12:25:44;;;;;;;30.42;20.48;;;13.70;99.90;;;;;;5062756;28;20123;-46
2023/04/09 12:28:16;;;;;;;30.17;18.85;;;13.90;99.90;;;;;;5059639;28;20048;-45
2023/04/09 12:30:42;;;;;;;28.50;19.92;;;14.10;99.90;;;;;;5053618;28;20487;-48
2023/04/09 12:33:08;;;;;;;26.88;17.35;;;14.50;99.90;;;;;;5054302;28;20036;-46
2023/04/09 12:35:34;;;;;;;28.65;18.88;;;14.60;99.90;;;;;;5063423;28;20029;-45
2023/04/09 12:38:00;;;;;;;29.60;20.05;;;14.50;99.90;;;;;;5067513;28;20074;-46